Saint Louis, MO

1:05 AM CST on February 10, 2016 (GMT -0600)
Webster Groves | | Change Station
CLOSE
Current Station
Personal Weather Station
Location: Webster Groves, MO
Elevation: 571 ft
Nearby Weather Stations

Elev 571 ft 38.59 °N, 90.35 °W | Updated 10 seconds ago

Mostly Cloudy
Mostly Cloudy
17.7 °F
Feels Like 7 °F
N
8.0
Wind Variable Wind from SW

Today
High -- | Low -- °F
--% Chance of Precip.
Yesterday
High -- | Low -- °F
Precip. -- in
Pressure 30.19 in
Visibility 9.0 miles
Clouds Mostly Cloudy 3300 ft
Windchill 7 °F
Dew Point -22 °F
Humidity 15%
Rainfall 0.00 in
Snow Depth Not available.
6:58 AM 5:33 PM
Waxing Crescent, 4% visible
METAR KSTL 100651Z 32015KT 9SM -SN BKN033 M07/M14 A3014 RMK AO2 SLP223 P0000 T10721139
Pressure 30.19 in
Visibility 9.0 miles
Clouds Mostly Cloudy 3300 ft
Windchill 7 °F
Dew Point -22 °F
Humidity 15%
Rainfall 0.00 in
Snow Depth Not available.
6:58 AM 5:33 PM
Waxing Crescent, 4% visible
METAR KSTL 100651Z 32015KT 9SM -SN BKN033 M07/M14 A3014 RMK AO2 SLP223 P0000 T10721139

10-Day Weather Forecast

Almanac

Astronomy

Feb. 10, 2016 Rise Set
Actual Time
Civil Twilight
Nautical Twilight
Astronomical Twilight
Moon
Length of Visible Light
Length of Day
Tomorrow will be .
, % of the Moon is Illuminated

Today's Extremes

State Highs State Lows

Community

WunderPhotos

Upload Photos

1,891,826 photos uploaded!

WunderBlog® & News

Nearby

Air Quality

  Air Quality AQ Index Pollutant
Not available.

Snow Depth

Station Depth Elevation

Earthquake Activity

City Distance Mag. Time & Date
Minimum magnitude displayed is 2.5.

Coastal Water Temperatures

Place Temperature

Stations

Nearby Weather Stations

Station Location Temp. Windchill Dew Point Humidity Wind Precip. Elev Updated Type
                   

Watches & Warnings

There are currently no watches in effect.